sensor_id;sensor_type;location;lat;lon;timestamp;pressure;altitude;pressure_sealevel;temperature;humidity
55347;BME280;41218;55.700;38.270;2023-04-28T00:00:00;99352.50;;;10.33;59.90
55347;BME280;41218;55.700;38.270;2023-04-28T00:05:01;99349.63;;;10.26;60.00
55347;BME280;41218;55.700;38.270;2023-04-28T00:10:02;99349.19;;;10.23;59.82
55347;BME280;41218;55.700;38.270;2023-04-28T00:15:03;99330.53;;;10.10;59.78
55347;BME280;41218;55.700;38.270;2023-04-28T00:20:05;99338.09;;;10.16;60.07
55347;BME280;41218;55.700;38.270;2023-04-28T00:25:06;99338.84;;;10.13;60.14
55347;BME280;41218;55.700;38.270;2023-04-28T00:30:07;99334.41;;;10.05;60.17
55347;BME280;41218;55.700;38.270;2023-04-28T00:35:08;99336.47;;;10.12;60.15
55347;BME280;41218;55.700;38.270;2023-04-28T00:40:09;99340.28;;;10.03;60.08
55347;BME280;41218;55.700;38.270;2023-04-28T00:45:10;99339.84;;;9.98;60.15
55347;BME280;41218;55.700;38.270;2023-04-28T00:50:11;99339.00;;;9.94;60.36
55347;BME280;41218;55.700;38.270;2023-04-28T00:55:14;99344.13;;;9.92;60.50
55347;BME280;41218;55.700;38.270;2023-04-28T01:00:15;99333.38;;;9.87;60.72
55347;BME280;41218;55.700;38.270;2023-04-28T01:05:16;99329.88;;;9.90;60.42
55347;BME280;41218;55.700;38.270;2023-04-28T01:10:17;99321.75;;;9.70;60.67
55347;BME280;41218;55.700;38.270;2023-04-28T01:15:19;99340.75;;;9.75;60.43
55347;BME280;41218;55.700;38.270;2023-04-28T01:20:20;99341.84;;;9.71;60.50
55347;BME280;41218;55.700;38.270;2023-04-28T01:25:20;99332.38;;;9.68;60.80
55347;BME280;41218;55.700;38.270;2023-04-28T01:30:21;99333.44;;;9.60;60.77
55347;BME280;41218;55.700;38.270;2023-04-28T01:35:21;99349.22;;;9.59;61.00
55347;BME280;41218;55.700;38.270;2023-04-28T01:40:22;99348.78;;;9.57;60.96
55347;BME280;41218;55.700;38.270;2023-04-28T01:45:22;99335.66;;;9.51;60.91
55347;BME280;41218;55.700;38.270;2023-04-28T01:50:23;99351.84;;;9.52;61.03
55347;BME280;41218;55.700;38.270;2023-04-28T01:55:23;99353.03;;;9.51;60.99
55347;BME280;41218;55.700;38.270;2023-04-28T02:00:24;99353.41;;;9.50;60.78
55347;BME280;41218;55.700;38.270;2023-04-28T02:05:24;99347.81;;;9.46;61.05
55347;BME280;41218;55.700;38.270;2023-04-28T02:10:25;99347.41;;;9.44;61.04
55347;BME280;41218;55.700;38.270;2023-04-28T02:15:26;99343.44;;;9.41;61.31
55347;BME280;41218;55.700;38.270;2023-04-28T02:20:26;99344.59;;;9.40;61.39
55347;BME280;41218;55.700;38.270;2023-04-28T02:25:27;99323.97;;;9.31;61.54
55347;BME280;41218;55.700;38.270;2023-04-28T02:30:27;99328.44;;;9.39;61.46
55347;BME280;41218;55.700;38.270;2023-04-28T02:35:28;99335.88;;;9.38;61.62
55347;BME280;41218;55.700;38.270;2023-04-28T02:40:29;99336.72;;;9.42;61.67
55347;BME280;41218;55.700;38.270;2023-04-28T02:45:29;99344.28;;;9.46;61.75
55347;BME280;41218;55.700;38.270;2023-04-28T02:50:30;99346.28;;;9.49;61.75
55347;BME280;41218;55.700;38.270;2023-04-28T02:55:31;99349.09;;;9.52;62.34
55347;BME280;41218;55.700;38.270;2023-04-28T03:00:31;99350.38;;;9.58;62.57
55347;BME280;41218;55.700;38.270;2023-04-28T03:05:32;99344.94;;;9.66;63.05
55347;BME280;41218;55.700;38.270;2023-04-28T03:10:32;99358.88;;;9.76;63.55
55347;BME280;41218;55.700;38.270;2023-04-28T03:15:33;99360.63;;;9.88;63.88
55347;BME280;41218;55.700;38.270;2023-04-28T03:20:33;99363.16;;;10.00;64.13
55347;BME280;41218;55.700;38.270;2023-04-28T03:25:34;99370.41;;;10.12;64.39
55347;BME280;41218;55.700;38.270;2023-04-28T03:30:35;99374.47;;;10.22;64.60
55347;BME280;41218;55.700;38.270;2023-04-28T03:35:35;99384.88;;;10.32;64.65
55347;BME280;41218;55.700;38.270;2023-04-28T03:40:36;99381.84;;;10.45;64.82
55347;BME280;41218;55.700;38.270;2023-04-28T03:45:37;99385.09;;;10.54;64.95
55347;BME280;41218;55.700;38.270;2023-04-28T03:50:37;99382.03;;;10.62;64.97
55347;BME280;41218;55.700;38.270;2023-04-28T03:55:40;99386.06;;;10.72;65.22
55347;BME280;41218;55.700;38.270;2023-04-28T04:00:40;99386.56;;;10.81;65.26
55347;BME280;41218;55.700;38.270;2023-04-28T04:05:41;99379.56;;;10.91;65.20
55347;BME280;41218;55.700;38.270;2023-04-28T04:10:41;99383.22;;;11.06;65.37
55347;BME280;41218;55.700;38.270;2023-04-28T04:15:42;99382.56;;;11.20;65.51
55347;BME280;41218;55.700;38.270;2023-04-28T04:20:42;99379.09;;;11.37;65.39
55347;BME280;41218;55.700;38.270;2023-04-28T04:25:43;99387.13;;;11.50;65.20
55347;BME280;41218;55.700;38.270;2023-04-28T04:30:43;99392.72;;;11.60;65.04
55347;BME280;41218;55.700;38.270;2023-04-28T04:35:44;99399.94;;;11.72;65.16
55347;BME280;41218;55.700;38.270;2023-04-28T04:40:44;99401.97;;;11.82;64.99
55347;BME280;41218;55.700;38.270;2023-04-28T04:45:45;99398.47;;;11.89;65.01
55347;BME280;41218;55.700;38.270;2023-04-28T04:50:45;99404.47;;;12.06;65.05
55347;BME280;41218;55.700;38.270;2023-04-28T04:55:46;99402.16;;;12.18;64.85
55347;BME280;41218;55.700;38.270;2023-04-28T05:00:47;99410.16;;;12.31;64.75
55347;BME280;41218;55.700;38.270;2023-04-28T05:05:47;99412.97;;;12.41;64.94
55347;BME280;41218;55.700;38.270;2023-04-28T05:10:48;99402.69;;;12.53;64.74
55347;BME280;41218;55.700;38.270;2023-04-28T05:15:48;99415.41;;;12.68;64.63
55347;BME280;41218;55.700;38.270;2023-04-28T05:20:49;99415.06;;;12.84;64.70
55347;BME280;41218;55.700;38.270;2023-04-28T05:25:50;99424.56;;;13.01;64.74
55347;BME280;41218;55.700;38.270;2023-04-28T05:30:50;99415.47;;;13.15;64.27
55347;BME280;41218;55.700;38.270;2023-04-28T05:35:51;99429.81;;;13.35;64.10
55347;BME280;41218;55.700;38.270;2023-04-28T05:40:51;99427.41;;;13.44;63.89
55347;BME280;41218;55.700;38.270;2023-04-28T05:45:52;99430.59;;;13.57;63.47
55347;BME280;41218;55.700;38.270;2023-04-28T05:50:52;99417.09;;;13.59;63.66
55347;BME280;41218;55.700;38.270;2023-04-28T05:55:56;99432.16;;;13.69;63.63
55347;BME280;41218;55.700;38.270;2023-04-28T06:00:56;99416.69;;;13.71;63.50
55347;BME280;41218;55.700;38.270;2023-04-28T06:05:58;99413.88;;;13.86;63.34
55347;BME280;41218;55.700;38.270;2023-04-28T06:10:58;99413.03;;;14.03;63.37
55347;BME280;41218;55.700;38.270;2023-04-28T06:15:59;99417.78;;;14.13;63.03
55347;BME280;41218;55.700;38.270;2023-04-28T06:20:59;99424.06;;;14.25;62.99
55347;BME280;41218;55.700;38.270;2023-04-28T06:26:00;99421.63;;;14.37;62.65
55347;BME280;41218;55.700;38.270;2023-04-28T06:31:01;99420.41;;;14.49;62.60
55347;BME280;41218;55.700;38.270;2023-04-28T06:36:02;99433.09;;;14.61;62.32
55347;BME280;41218;55.700;38.270;2023-04-28T06:41:03;99431.44;;;14.71;62.11
55347;BME280;41218;55.700;38.270;2023-04-28T06:46:03;99435.34;;;14.84;62.14
55347;BME280;41218;55.700;38.270;2023-04-28T06:51:05;99431.69;;;14.98;61.99
55347;BME280;41218;55.700;38.270;2023-04-28T06:56:05;99443.47;;;15.20;61.80
55347;BME280;41218;55.700;38.270;2023-04-28T07:01:06;99436.19;;;15.37;61.52
55347;BME280;41218;55.700;38.270;2023-04-28T07:06:07;99444.38;;;15.55;61.27
55347;BME280;41218;55.700;38.270;2023-04-28T07:11:07;99430.69;;;15.75;60.76
55347;BME280;41218;55.700;38.270;2023-04-28T07:16:08;99439.28;;;15.91;60.48
55347;BME280;41218;55.700;38.270;2023-04-28T07:21:10;99446.31;;;16.07;60.53
55347;BME280;41218;55.700;38.270;2023-04-28T07:26:10;99439.38;;;16.22;60.40
55347;BME280;41218;55.700;38.270;2023-04-28T07:31:11;99431.59;;;16.40;59.92
55347;BME280;41218;55.700;38.270;2023-04-28T07:36:12;99432.94;;;16.59;59.54
55347;BME280;41218;55.700;38.270;2023-04-28T07:41:13;99431.59;;;16.71;59.23
55347;BME280;41218;55.700;38.270;2023-04-28T07:46:13;99432.97;;;16.87;58.97
55347;BME280;41218;55.700;38.270;2023-04-28T07:51:14;99445.41;;;16.82;59.00
55347;BME280;41218;55.700;38.270;2023-04-28T07:56:14;99435.31;;;16.92;58.71
55347;BME280;41218;55.700;38.270;2023-04-28T08:01:15;99425.09;;;16.81;58.43
55347;BME280;41218;55.700;38.270;2023-04-28T08:06:16;99435.28;;;16.95;58.31
55347;BME280;41218;55.700;38.270;2023-04-28T08:11:16;99426.34;;;17.04;58.15
55347;BME280;41218;55.700;38.270;2023-04-28T08:16:17;99426.88;;;17.22;58.03
55347;BME280;41218;55.700;38.270;2023-04-28T08:21:18;99425.22;;;17.25;57.84
55347;BME280;41218;55.700;38.270;2023-04-28T08:26:19;99424.75;;;17.30;57.75
55347;BME280;41218;55.700;38.270;2023-04-28T08:31:19;99419.78;;;17.41;57.46
55347;BME280;41218;55.700;38.270;2023-04-28T08:36:20;99417.75;;;17.18;57.67
55347;BME280;41218;55.700;38.270;2023-04-28T08:41:20;99428.88;;;17.22;57.71
55347;BME280;41218;55.700;38.270;2023-04-28T08:46:22;99426.00;;;17.02;57.80
55347;BME280;41218;55.700;38.270;2023-04-28T08:51:29;99430.94;;;16.91;58.32
55347;BME280;41218;55.700;38.270;2023-04-28T08:56:33;99424.16;;;16.92;58.64
55347;BME280;41218;55.700;38.270;2023-04-28T09:01:34;99418.34;;;17.06;58.68
55347;BME280;41218;55.700;38.270;2023-04-28T09:06:36;99417.81;;;17.15;58.76
55347;BME280;41218;55.700;38.270;2023-04-28T09:12:10;99419.03;;;17.14;58.78
55347;BME280;41218;55.700;38.270;2023-04-28T09:17:11;99420.72;;;17.08;58.64
55347;BME280;41218;55.700;38.270;2023-04-28T09:22:12;99414.03;;;17.01;58.94
55347;BME280;41218;55.700;38.270;2023-04-28T09:27:12;99423.75;;;17.17;58.93
55347;BME280;41218;55.700;38.270;2023-04-28T09:32:16;99420.59;;;17.15;59.59
55347;BME280;41218;55.700;38.270;2023-04-28T09:37:22;99420.56;;;17.18;59.81
55347;BME280;41218;55.700;38.270;2023-04-28T09:42:36;99421.69;;;17.21;60.44
55347;BME280;41218;55.700;38.270;2023-04-28T09:47:42;99426.91;;;17.19;60.20
55347;BME280;41218;55.700;38.270;2023-04-28T09:52:45;99426.56;;;17.17;60.55
55347;BME280;41218;55.700;38.270;2023-04-28T09:57:48;99422.88;;;17.24;60.77
55347;BME280;41218;55.700;38.270;2023-04-28T10:02:50;99433.81;;;17.38;61.02
55347;BME280;41218;55.700;38.270;2023-04-28T10:07:51;99435.66;;;17.48;61.59
55347;BME280;41218;55.700;38.270;2023-04-28T10:12:54;99428.41;;;17.51;61.90
55347;BME280;41218;55.700;38.270;2023-04-28T10:17:56;99431.81;;;17.62;61.95
55347;BME280;41218;55.700;38.270;2023-04-28T10:28:08;99440.00;;;17.73;61.73
55347;BME280;41218;55.700;38.270;2023-04-28T10:38:14;99449.19;;;17.73;61.76
55347;BME280;41218;55.700;38.270;2023-04-28T10:58:49;99458.06;;;17.45;61.94
55347;BME280;41218;55.700;38.270;2023-04-28T11:09:02;99465.88;;;17.30;61.85
55347;BME280;41218;55.700;38.270;2023-04-28T11:19:20;99460.91;;;17.14;62.27
55347;BME280;41218;55.700;38.270;2023-04-28T11:24:26;99454.19;;;17.11;62.55
55347;BME280;41218;55.700;38.270;2023-04-28T11:29:46;99455.75;;;17.12;62.24
55347;BME280;41218;55.700;38.270;2023-04-28T11:34:50;99456.53;;;17.13;62.66
55347;BME280;41218;55.700;38.270;2023-04-28T11:39:54;99452.59;;;17.10;62.60
55347;BME280;41218;55.700;38.270;2023-04-28T11:44:54;99452.75;;;17.27;62.46
55347;BME280;41218;55.700;38.270;2023-04-28T11:49:55;99444.16;;;17.14;62.64
55347;BME280;41218;55.700;38.270;2023-04-28T11:54:58;99437.16;;;17.02;62.87
55347;BME280;41218;55.700;38.270;2023-04-28T12:00:12;99437.13;;;17.06;63.62
55347;BME280;41218;55.700;38.270;2023-04-28T12:05:13;99435.94;;;17.03;62.97
55347;BME280;41218;55.700;38.270;2023-04-28T12:10:14;99438.59;;;17.14;62.67
55347;BME280;41218;55.700;38.270;2023-04-28T12:15:15;99425.13;;;17.05;62.92
55347;BME280;41218;55.700;38.270;2023-04-28T12:20:37;99411.50;;;17.11;62.94
55347;BME280;41218;55.700;38.270;2023-04-28T12:25:44;99425.44;;;17.11;62.80
55347;BME280;41218;55.700;38.270;2023-04-28T12:30:46;99409.28;;;16.98;63.43
55347;BME280;41218;55.700;38.270;2023-04-28T12:35:46;99408.81;;;17.04;63.14
55347;BME280;41218;55.700;38.270;2023-04-28T12:40:48;99401.31;;;16.97;63.31
55347;BME280;41218;55.700;38.270;2023-04-28T12:45:49;99407.97;;;17.07;63.29
55347;BME280;41218;55.700;38.270;2023-04-28T12:50:49;99421.59;;;17.01;63.28
55347;BME280;41218;55.700;38.270;2023-04-28T12:55:50;99406.50;;;16.98;63.65
55347;BME280;41218;55.700;38.270;2023-04-28T13:00:51;99399.59;;;17.07;63.41
55347;BME280;41218;55.700;38.270;2023-04-28T13:05:51;99391.75;;;16.98;63.43
55347;BME280;41218;55.700;38.270;2023-04-28T13:10:52;99405.91;;;17.11;63.41
55347;BME280;41218;55.700;38.270;2023-04-28T13:15:52;99411.97;;;17.06;63.56
55347;BME280;41218;55.700;38.270;2023-04-28T13:20:53;99416.66;;;17.12;63.85
55347;BME280;41218;55.700;38.270;2023-04-28T13:25:54;99407.13;;;17.10;64.16
55347;BME280;41218;55.700;38.270;2023-04-28T13:30:54;99404.94;;;17.21;63.96
55347;BME280;41218;55.700;38.270;2023-04-28T13:35:56;99400.28;;;17.14;64.06
55347;BME280;41218;55.700;38.270;2023-04-28T13:40:57;99394.63;;;17.18;64.53
55347;BME280;41218;55.700;38.270;2023-04-28T13:45:57;99399.63;;;17.30;64.27
55347;BME280;41218;55.700;38.270;2023-04-28T13:50:58;99389.38;;;17.24;64.30
55347;BME280;41218;55.700;38.270;2023-04-28T13:55:58;99394.41;;;17.32;64.23
55347;BME280;41218;55.700;38.270;2023-04-28T14:00:59;99386.22;;;17.21;64.23
55347;BME280;41218;55.700;38.270;2023-04-28T14:06:00;99399.25;;;17.28;64.23
55347;BME280;41218;55.700;38.270;2023-04-28T14:11:00;99395.06;;;17.16;64.33
55347;BME280;41218;55.700;38.270;2023-04-28T14:16:01;99400.94;;;17.22;64.02
55347;BME280;41218;55.700;38.270;2023-04-28T14:21:01;99399.16;;;17.08;64.08
55347;BME280;41218;55.700;38.270;2023-04-28T14:26:07;99400.13;;;16.98;64.21
55347;BME280;41218;55.700;38.270;2023-04-28T14:31:08;99401.44;;;16.90;64.46
55347;BME280;41218;55.700;38.270;2023-04-28T14:36:08;99407.34;;;16.95;64.27
55347;BME280;41218;55.700;38.270;2023-04-28T14:41:09;99401.63;;;16.75;64.48
55347;BME280;41218;55.700;38.270;2023-04-28T14:46:10;99410.84;;;16.41;64.59
55347;BME280;41218;55.700;38.270;2023-04-28T14:51:12;99428.50;;;16.31;65.00
55347;BME280;41218;55.700;38.270;2023-04-28T14:56:12;99433.66;;;16.33;64.93
55347;BME280;41218;55.700;38.270;2023-04-28T15:01:13;99428.72;;;16.10;64.83
55347;BME280;41218;55.700;38.270;2023-04-28T15:06:13;99418.47;;;16.03;64.86
55347;BME280;41218;55.700;38.270;2023-04-28T15:11:13;99434.47;;;15.95;65.10
55347;BME280;41218;55.700;38.270;2023-04-28T15:16:14;99425.84;;;15.82;65.20
55347;BME280;41218;55.700;38.270;2023-04-28T15:21:15;99434.66;;;15.77;65.39
55347;BME280;41218;55.700;38.270;2023-04-28T15:26:16;99447.91;;;15.59;65.28
55347;BME280;41218;55.700;38.270;2023-04-28T15:31:16;99442.19;;;15.28;65.56
55347;BME280;41218;55.700;38.270;2023-04-28T15:36:17;99451.09;;;15.09;66.03
55347;BME280;41218;55.700;38.270;2023-04-28T15:41:19;99461.59;;;14.83;65.94
55347;BME280;41218;55.700;38.270;2023-04-28T15:46:20;99437.91;;;14.39;66.26
55347;BME280;41218;55.700;38.270;2023-04-28T15:51:21;99458.22;;;14.32;66.47
55347;BME280;41218;55.700;38.270;2023-04-28T15:56:22;99459.44;;;14.17;66.10
55347;BME280;41218;55.700;38.270;2023-04-28T16:01:23;99480.50;;;14.18;66.73
55347;BME280;41218;55.700;38.270;2023-04-28T16:06:23;99465.06;;;13.92;66.60
55347;BME280;41218;55.700;38.270;2023-04-28T16:11:24;99498.38;;;14.06;66.22
55347;BME280;41218;55.700;38.270;2023-04-28T16:16:26;99496.41;;;13.74;66.40
55347;BME280;41218;55.700;38.270;2023-04-28T16:21:27;99505.16;;;13.48;66.54
55347;BME280;41218;55.700;38.270;2023-04-28T16:26:28;99504.69;;;13.20;66.78
55347;BME280;41218;55.700;38.270;2023-04-28T16:31:29;99512.63;;;13.22;66.82
55347;BME280;41218;55.700;38.270;2023-04-28T16:36:30;99505.88;;;13.19;66.77
55347;BME280;41218;55.700;38.270;2023-04-28T16:41:32;99491.19;;;13.05;66.46
55347;BME280;41218;55.700;38.270;2023-04-28T16:46:32;99503.84;;;12.95;66.49
55347;BME280;41218;55.700;38.270;2023-04-28T16:51:33;99508.13;;;12.74;66.78
55347;BME280;41218;55.700;38.270;2023-04-28T16:56:34;99519.19;;;12.71;67.19
55347;BME280;41218;55.700;38.270;2023-04-28T17:01:38;99511.22;;;12.51;67.02
55347;BME280;41218;55.700;38.270;2023-04-28T17:06:39;99525.06;;;12.51;67.07
55347;BME280;41218;55.700;38.270;2023-04-28T17:11:39;99521.84;;;12.42;67.27
55347;BME280;41218;55.700;38.270;2023-04-28T17:16:40;99519.44;;;12.33;67.29
55347;BME280;41218;55.700;38.270;2023-04-28T17:21:43;99531.66;;;12.25;67.06
55347;BME280;41218;55.700;38.270;2023-04-28T17:26:44;99517.63;;;11.96;66.89
55347;BME280;41218;55.700;38.270;2023-04-28T17:31:45;99529.78;;;11.88;67.26
55347;BME280;41218;55.700;38.270;2023-04-28T17:36:45;99533.66;;;11.80;67.74
55347;BME280;41218;55.700;38.270;2023-04-28T17:41:46;99556.13;;;11.71;67.68
55347;BME280;41218;55.700;38.270;2023-04-28T17:46:46;99564.78;;;11.62;67.41
55347;BME280;41218;55.700;38.270;2023-04-28T17:51:47;99554.72;;;11.47;67.73
55347;BME280;41218;55.700;38.270;2023-04-28T17:56:47;99563.44;;;11.49;67.67
55347;BME280;41218;55.700;38.270;2023-04-28T18:01:49;99568.50;;;11.40;67.43
55347;BME280;41218;55.700;38.270;2023-04-28T18:06:52;99563.19;;;11.24;67.31
55347;BME280;41218;55.700;38.270;2023-04-28T18:11:53;99564.97;;;11.06;67.66
55347;BME280;41218;55.700;38.270;2023-04-28T18:16:56;99562.06;;;10.91;67.71
55347;BME280;41218;55.700;38.270;2023-04-28T18:21:56;99567.94;;;10.90;68.03
55347;BME280;41218;55.700;38.270;2023-04-28T18:26:57;99561.88;;;10.77;67.63
55347;BME280;41218;55.700;38.270;2023-04-28T18:31:57;99559.06;;;10.73;67.74
55347;BME280;41218;55.700;38.270;2023-04-28T18:36:58;99569.69;;;10.71;67.59
55347;BME280;41218;55.700;38.270;2023-04-28T18:41:58;99558.94;;;10.66;67.87
55347;BME280;41218;55.700;38.270;2023-04-28T18:46:59;99572.34;;;10.64;67.68
55347;BME280;41218;55.700;38.270;2023-04-28T18:51:59;99563.13;;;10.53;67.65
55347;BME280;41218;55.700;38.270;2023-04-28T18:57:01;99565.84;;;10.49;67.61
55347;BME280;41218;55.700;38.270;2023-04-28T19:02:03;99560.59;;;10.40;67.94
55347;BME280;41218;55.700;38.270;2023-04-28T19:07:03;99548.56;;;10.29;68.12
55347;BME280;41218;55.700;38.270;2023-04-28T19:12:04;99562.72;;;10.24;68.31
55347;BME280;41218;55.700;38.270;2023-04-28T19:17:04;99556.63;;;10.15;67.93
55347;BME280;41218;55.700;38.270;2023-04-28T19:22:31;99565.28;;;10.13;68.00
55347;BME280;41218;55.700;38.270;2023-04-28T19:27:35;99562.00;;;10.04;68.02
55347;BME280;41218;55.700;38.270;2023-04-28T19:32:36;99561.19;;;10.03;68.07
55347;BME280;41218;55.700;38.270;2023-04-28T19:37:36;99531.28;;;9.82;68.07
55347;BME280;41218;55.700;38.270;2023-04-28T19:42:38;99552.16;;;9.80;68.42
55347;BME280;41218;55.700;38.270;2023-04-28T19:47:38;99560.81;;;9.78;68.26
55347;BME280;41218;55.700;38.270;2023-04-28T19:52:39;99559.59;;;9.76;68.15
55347;BME280;41218;55.700;38.270;2023-04-28T19:57:39;99555.22;;;9.75;68.40
55347;BME280;41218;55.700;38.270;2023-04-28T20:02:40;99546.47;;;9.69;68.30
55347;BME280;41218;55.700;38.270;2023-04-28T20:07:41;99546.34;;;9.62;68.25
55347;BME280;41218;55.700;38.270;2023-04-28T20:12:42;99553.81;;;9.61;68.53
55347;BME280;41218;55.700;38.270;2023-04-28T20:17:43;99549.72;;;9.52;68.21
55347;BME280;41218;55.700;38.270;2023-04-28T20:22:43;99550.69;;;9.40;68.56
55347;BME280;41218;55.700;38.270;2023-04-28T20:27:44;99559.91;;;9.28;68.05
55347;BME280;41218;55.700;38.270;2023-04-28T20:32:46;99564.38;;;9.13;68.74
55347;BME280;41218;55.700;38.270;2023-04-28T20:37:46;99570.19;;;9.08;68.55
55347;BME280;41218;55.700;38.270;2023-04-28T20:42:47;99558.66;;;9.02;68.75
55347;BME280;41218;55.700;38.270;2023-04-28T20:47:48;99552.75;;;9.04;68.70
55347;BME280;41218;55.700;38.270;2023-04-28T20:52:48;99554.22;;;8.98;68.65
55347;BME280;41218;55.700;38.270;2023-04-28T20:57:49;99553.22;;;8.87;68.96
55347;BME280;41218;55.700;38.270;2023-04-28T21:02:49;99544.88;;;8.83;69.03
55347;BME280;41218;55.700;38.270;2023-04-28T21:07:50;99546.75;;;8.79;69.23
55347;BME280;41218;55.700;38.270;2023-04-28T21:12:51;99553.88;;;8.80;68.96
55347;BME280;41218;55.700;38.270;2023-04-28T21:17:51;99558.06;;;8.74;68.61
55347;BME280;41218;55.700;38.270;2023-04-28T21:22:51;99556.06;;;8.71;68.81
55347;BME280;41218;55.700;38.270;2023-04-28T21:27:52;99559.16;;;8.69;68.92
55347;BME280;41218;55.700;38.270;2023-04-28T21:32:52;99549.75;;;8.70;68.49
55347;BME280;41218;55.700;38.270;2023-04-28T21:37:54;99542.63;;;8.69;68.75
55347;BME280;41218;55.700;38.270;2023-04-28T21:42:54;99551.19;;;8.64;68.73
55347;BME280;41218;55.700;38.270;2023-04-28T21:47:55;99538.69;;;8.51;68.62
55347;BME280;41218;55.700;38.270;2023-04-28T21:52:57;99535.81;;;8.44;68.67
55347;BME280;41218;55.700;38.270;2023-04-28T21:57:58;99538.16;;;8.26;68.66
55347;BME280;41218;55.700;38.270;2023-04-28T22:02:59;99523.75;;;8.16;69.04
55347;BME280;41218;55.700;38.270;2023-04-28T22:08:00;99540.94;;;8.10;69.07
55347;BME280;41218;55.700;38.270;2023-04-28T22:13:01;99542.16;;;8.12;69.10
55347;BME280;41218;55.700;38.270;2023-04-28T22:18:02;99529.56;;;8.11;69.31
55347;BME280;41218;55.700;38.270;2023-04-28T22:23:02;99535.06;;;8.11;69.10
55347;BME280;41218;55.700;38.270;2023-04-28T22:28:03;99518.72;;;8.02;69.35
55347;BME280;41218;55.700;38.270;2023-04-28T22:33:04;99490.72;;;7.97;69.50
55347;BME280;41218;55.700;38.270;2023-04-28T22:38:05;99481.03;;;7.87;69.67
55347;BME280;41218;55.700;38.270;2023-04-28T22:43:05;99498.25;;;7.84;69.45
55347;BME280;41218;55.700;38.270;2023-04-28T22:48:06;99496.94;;;7.78;69.51
55347;BME280;41218;55.700;38.270;2023-04-28T22:53:06;99516.91;;;7.75;69.54
55347;BME280;41218;55.700;38.270;2023-04-28T22:58:07;99530.50;;;7.68;69.22
55347;BME280;41218;55.700;38.270;2023-04-28T23:03:08;99516.84;;;7.55;69.70
55347;BME280;41218;55.700;38.270;2023-04-28T23:08:08;99521.44;;;7.51;70.08
55347;BME280;41218;55.700;38.270;2023-04-28T23:13:09;99508.03;;;7.50;69.73
55347;BME280;41218;55.700;38.270;2023-04-28T23:18:09;99490.41;;;7.51;69.87
55347;BME280;41218;55.700;38.270;2023-04-28T23:23:10;99500.69;;;7.38;69.52
55347;BME280;41218;55.700;38.270;2023-04-28T23:28:10;99520.28;;;7.20;70.21
55347;BME280;41218;55.700;38.270;2023-04-28T23:33:11;99536.44;;;7.22;70.28
55347;BME280;41218;55.700;38.270;2023-04-28T23:38:12;99530.22;;;7.25;70.11
55347;BME280;41218;55.700;38.270;2023-04-28T23:43:12;99521.78;;;7.18;70.22
55347;BME280;41218;55.700;38.270;2023-04-28T23:48:13;99525.22;;;7.15;70.10
55347;BME280;41218;55.700;38.270;2023-04-28T23:53:14;99532.03;;;7.05;69.93
55347;BME280;41218;55.700;38.270;2023-04-28T23:58:14;99530.50;;;6.92;70.56
